Time;durP1;ratioP1;P1;durP2;ratioP2;P2;SDS_P1;SDS_P2;PMS_P1;PMS_P2;Temp;Humidity;BMP_temperature;BMP_pressure;BME280_temperature;BME280_humidity;BME280_pressure;Samples;Min_cycle;Max_cycle;Signal;HPM_P1;HPM_P2
2023/12/31 00:01:55;;;;;;;15.37;4.17;;;;;;;18.74;59.17;99749.97;4920594;28;20242;-75
2023/12/31 00:04:20;;;;;;;9.73;3.30;;;;;;;18.75;58.73;99735.28;4937785;29;20575;-70
2023/12/31 00:06:46;;;;;;;7.53;4.23;;;;;;;18.74;58.87;99727.91;4934981;29;20207;-69
2023/12/31 00:09:11;;;;;;;6.50;3.50;;;;;;;18.77;59.05;99721.38;4937666;29;20210;-70
2023/12/31 00:11:37;;;;;;;11.20;4.63;;;;;;;18.75;59.20;99723.84;4937733;29;20211;-69
2023/12/31 00:14:02;;;;;;;9.40;4.27;;;;;;;18.74;59.19;99722.19;4932324;29;20250;-69
2023/12/31 00:16:28;;;;;;;8.10;3.63;;;;;;;18.72;59.08;99715.22;4925877;28;20206;-70
2023/12/31 00:18:53;;;;;;;10.33;3.70;;;;;;;18.71;59.34;99711.53;4929023;29;20661;-69
2023/12/31 00:21:19;;;;;;;8.50;3.70;;;;;;;18.73;59.23;99705.44;4945822;28;20584;-69
2023/12/31 00:23:44;;;;;;;12.27;4.07;;;;;;;18.72;58.93;99698.88;4920734;29;20303;-70
2023/12/31 00:26:10;;;;;;;9.13;3.90;;;;;;;18.71;59.36;99685.00;4922531;29;20252;-70
2023/12/31 00:28:35;;;;;;;6.80;3.77;;;;;;;18.74;59.04;99684.19;4935166;28;20202;-70
2023/12/31 00:31:01;;;;;;;11.23;3.73;;;;;;;18.73;59.03;99677.66;4934529;28;20312;-70
2023/12/31 00:33:26;;;;;;;10.23;4.80;;;;;;;18.70;59.06;99681.31;4901048;29;20546;-71
2023/12/31 00:35:51;;;;;;;6.57;3.77;;;;;;;18.73;59.19;99683.38;4900736;29;20207;-72
2023/12/31 00:38:17;;;;;;;10.03;3.67;;;;;;;18.72;58.93;99673.16;4925340;29;20218;-70
2023/12/31 00:40:42;;;;;;;8.50;3.17;;;;;;;18.72;59.12;99672.34;4916432;29;20258;-70
2023/12/31 00:43:08;;;;;;;10.93;4.10;;;;;;;18.75;58.83;99662.94;4919281;29;20203;-69
2023/12/31 00:45:33;;;;;;;6.33;3.43;;;;;;;18.73;58.96;99653.97;4920499;28;20214;-72
2023/12/31 00:47:59;;;;;;;8.80;3.80;;;;;;;18.71;59.21;99651.50;4933509;29;20587;-70
2023/12/31 00:50:24;;;;;;;8.67;4.00;;;;;;;18.72;59.33;99656.00;4936660;28;20284;-70
2023/12/31 00:52:50;;;;;;;7.10;3.80;;;;;;;18.72;58.96;99641.69;4936207;29;20211;-71
2023/12/31 00:55:15;;;;;;;7.20;3.60;;;;;;;18.72;58.67;99629.44;4936411;29;20277;-70
2023/12/31 00:57:40;;;;;;;7.47;3.50;;;;;;;18.72;58.63;99633.13;4933674;29;20206;-69
2023/12/31 01:00:07;;;;;;;7.77;3.70;;;;;;;18.72;59.11;99627.41;4951326;28;20210;-70
2023/12/31 01:02:32;;;;;;;7.37;3.23;;;;;;;18.70;58.75;99629.84;4952513;28;20688;-70
2023/12/31 01:04:57;;;;;;;6.77;3.67;;;;;;;18.71;59.46;99625.75;4919829;29;20459;-70
2023/12/31 01:07:23;;;;;;;5.17;2.83;;;;;;;18.72;59.00;99623.72;4911328;29;20208;-70
2023/12/31 01:09:48;;;;;;;6.90;3.20;;;;;;;18.71;58.78;99616.38;4933179;29;20218;-69
2023/12/31 01:12:14;;;;;;;6.63;3.40;;;;;;;18.71;59.02;99605.75;4901544;29;20218;-70
2023/12/31 01:14:39;;;;;;;6.23;3.60;;;;;;;18.72;59.08;99612.28;4946692;28;20226;-73
2023/12/31 01:17:05;;;;;;;10.07;3.60;;;;;;;18.69;59.13;99605.34;4946683;28;20211;-74
2023/12/31 01:19:30;;;;;;;6.60;3.27;;;;;;;18.69;58.83;99596.75;4933425;29;20199;-74
2023/12/31 01:21:56;;;;;;;6.50;3.30;;;;;;;18.69;58.80;99585.31;4933761;29;20597;-74
2023/12/31 01:24:21;;;;;;;7.73;3.20;;;;;;;18.68;59.08;99592.28;4932801;29;20200;-74
2023/12/31 01:26:47;;;;;;;8.57;3.17;;;;;;;18.68;58.97;99600.00;4982849;28;20215;-74
2023/12/31 01:29:12;;;;;;;6.63;3.20;;;;;;;18.70;59.05;99604.13;4948814;28;20264;-74
2023/12/31 01:31:37;;;;;;;7.80;3.07;;;;;;;18.70;58.89;99594.69;4921081;29;20218;-74
2023/12/31 01:34:03;;;;;;;7.33;3.50;;;;;;;18.67;58.99;99595.53;4900006;29;20238;-74
2023/12/31 01:36:29;;;;;;;8.20;3.67;;;;;;;18.67;58.93;99590.59;4947469;29;20294;-73
2023/12/31 01:38:54;;;;;;;8.90;3.30;;;;;;;18.66;59.02;99586.09;4931262;29;20458;-74
2023/12/31 01:41:20;;;;;;;4.93;3.07;;;;;;;18.67;58.84;99590.59;4934624;29;20207;-74
2023/12/31 01:43:46;;;;;;;6.00;2.97;;;;;;;18.68;58.83;99582.84;4936445;28;20191;-74
2023/12/31 01:46:27;;;;;;;5.20;3.00;;;;;;;18.67;59.00;99579.16;4934183;29;20286;-74
2023/12/31 01:48:53;;;;;;;5.40;2.90;;;;;;;18.65;59.15;99578.75;4901653;29;20483;-74
2023/12/31 01:51:19;;;;;;;6.83;3.13;;;;;;;18.65;58.96;99573.03;4916890;28;20466;-74
2023/12/31 01:53:44;;;;;;;5.00;3.17;;;;;;;18.66;59.17;99562.44;4916356;29;20479;-74
2023/12/31 01:56:10;;;;;;;8.60;3.63;;;;;;;18.66;58.68;99557.53;4927339;29;20626;-74
2023/12/31 01:58:35;;;;;;;7.90;3.37;;;;;;;18.66;59.03;99545.28;4932366;29;20220;-74
2023/12/31 02:01:01;;;;;;;6.60;2.83;;;;;;;18.65;58.79;99550.16;4919975;29;20203;-73
2023/12/31 02:03:29;;;;;;;6.90;2.67;;;;;;;18.65;58.99;99546.47;4936363;29;20199;-74
2023/12/31 02:05:54;;;;;;;5.53;3.00;;;;;;;18.62;58.91;99550.16;4952419;29;20299;-74
2023/12/31 02:08:20;;;;;;;7.77;3.43;;;;;;;18.66;58.75;99542.41;4936513;29;20935;-74
2023/12/31 02:10:45;;;;;;;5.23;2.83;;;;;;;18.62;58.99;99530.13;4951987;28;20198;-74
2023/12/31 02:13:11;;;;;;;6.80;3.30;;;;;;;18.62;58.88;99530.94;4920413;29;20211;-74
2023/12/31 02:15:36;;;;;;;6.30;3.40;;;;;;;18.62;58.95;99533.81;4936909;29;20211;-74
2023/12/31 02:18:02;;;;;;;7.43;3.20;;;;;;;18.63;58.81;99524.03;4913533;29;20212;-74
2023/12/31 02:20:31;;;;;;;5.83;2.90;;;;;;;18.62;58.96;99519.50;4920296;29;20216;-74
2023/12/31 02:22:59;;;;;;;5.00;2.90;;;;;;;18.63;58.89;99520.34;4951216;28;20207;-73
2023/12/31 02:25:29;;;;;;;5.70;2.40;;;;;;;18.61;59.14;99512.16;4932559;29;20534;-73
2023/12/31 02:27:55;;;;;;;5.30;2.60;;;;;;;18.62;59.24;99496.63;4967344;28;21266;-73
2023/12/31 02:30:21;;;;;;;5.80;3.07;;;;;;;18.62;58.95;99495.84;4946887;28;20461;-73
2023/12/31 02:32:46;;;;;;;4.90;2.90;;;;;;;18.63;59.19;99491.75;4928781;29;20286;-73
2023/12/31 02:35:12;;;;;;;6.47;2.90;;;;;;;18.64;59.19;99490.53;4939631;29;20462;-73
2023/12/31 02:37:37;;;;;;;6.00;3.47;;;;;;;18.60;59.05;99501.13;4940446;28;20203;-73
2023/12/31 02:40:03;;;;;;;6.60;2.53;;;;;;;18.61;58.95;99483.56;4937051;29;20211;-73
2023/12/31 02:42:29;;;;;;;5.20;2.93;;;;;;;18.59;58.97;99493.75;4939645;29;20841;-74
2023/12/31 02:44:54;;;;;;;6.30;3.13;;;;;;;18.57;59.00;99482.72;4939427;29;20213;-73
2023/12/31 02:47:19;;;;;;;4.70;3.00;;;;;;;18.59;59.39;99485.19;4943321;28;20221;-73
2023/12/31 02:49:45;;;;;;;6.33;3.43;;;;;;;18.60;59.01;99472.53;4940220;29;20789;-73
2023/12/31 02:52:11;;;;;;;8.10;3.13;;;;;;;18.59;58.77;99465.19;4936646;29;20247;-73
2023/12/31 02:54:37;;;;;;;4.47;2.53;;;;;;;18.58;58.69;99464.38;4939052;29;20253;-73
2023/12/31 02:57:06;;;;;;;4.53;2.47;;;;;;;18.58;59.01;99455.81;4921290;29;20479;-73
2023/12/31 02:59:32;;;;;;;6.83;2.87;;;;;;;18.56;58.94;99457.44;4924599;28;20206;-74
2023/12/31 03:01:57;;;;;;;6.33;2.90;;;;;;;18.55;58.95;99450.88;4940100;29;20950;-73
2023/12/31 03:04:23;;;;;;;10.00;2.77;;;;;;;18.57;58.91;99448.44;4940802;29;20191;-73
2023/12/31 03:06:51;;;;;;;7.53;3.17;;;;;;;18.56;59.11;99452.50;4922165;29;20203;-73
2023/12/31 03:09:21;;;;;;;4.60;2.27;;;;;;;18.56;58.91;99441.06;4924922;28;20208;-73
2023/12/31 03:11:47;;;;;;;6.23;3.13;;;;;;;18.56;58.73;99429.63;4940202;28;20454;-74
2023/12/31 03:14:16;;;;;;;4.63;2.50;;;;;;;18.53;59.40;99416.16;4920215;29;20471;-73
2023/12/31 03:16:44;;;;;;;5.87;2.57;;;;;;;18.53;59.24;99416.16;4920555;29;20833;-73
2023/12/31 03:19:14;;;;;;;4.80;2.90;;;;;;;18.55;59.34;99415.75;4920346;29;20883;-73
2023/12/31 03:21:40;;;;;;;7.10;3.20;;;;;;;18.54;58.97;99412.09;4936019;28;20939;-73
2023/12/31 03:24:06;;;;;;;7.27;3.27;;;;;;;18.56;58.87;99412.50;4951076;28;20601;-73
2023/12/31 03:26:31;;;;;;;7.30;2.60;;;;;;;18.53;59.02;99404.75;4946596;29;20199;-73
2023/12/31 03:28:57;;;;;;;7.13;2.80;;;;;;;18.52;59.11;99394.50;4919619;28;20454;-74
2023/12/31 03:31:22;;;;;;;6.93;2.70;;;;;;;18.53;58.83;99393.31;4939884;29;20244;-73
2023/12/31 03:33:48;;;;;;;5.03;3.03;;;;;;;18.54;59.38;99394.94;4905704;29;20212;-75
2023/12/31 03:36:13;;;;;;;4.57;2.40;;;;;;;18.54;59.14;99391.25;4921659;28;20279;-75
2023/12/31 03:38:38;;;;;;;6.37;2.37;;;;;;;18.53;58.90;99386.75;4938868;29;20210;-75
2023/12/31 03:41:04;;;;;;;5.37;2.90;;;;;;;18.51;58.72;99378.56;4909244;28;20202;-75
2023/12/31 03:43:30;;;;;;;4.43;2.57;;;;;;;18.50;58.80;99382.66;4902812;29;20198;-74
2023/12/31 03:45:56;;;;;;;4.47;2.27;;;;;;;18.52;58.88;99385.94;4920691;29;20294;-75
2023/12/31 03:48:22;;;;;;;4.40;2.43;;;;;;;18.52;58.90;99388.78;4933154;29;20295;-75
2023/12/31 03:50:48;;;;;;;4.90;2.60;;;;;;;18.50;59.03;99385.53;4929975;29;20456;-75
2023/12/31 03:53:13;;;;;;;6.87;3.30;;;;;;;18.50;59.01;99381.84;4914275;29;20582;-75
2023/12/31 03:55:39;;;;;;;4.90;2.80;;;;;;;18.49;59.14;99378.19;4914691;29;20889;-75
2023/12/31 03:58:06;;;;;;;5.70;2.50;;;;;;;18.51;59.23;99375.72;4932240;29;20718;-75
2023/12/31 04:00:32;;;;;;;4.00;2.53;;;;;;;18.51;58.67;99370.00;4883386;29;20744;-75
2023/12/31 04:02:57;;;;;;;4.37;2.60;;;;;;;18.50;58.70;99362.66;4898419;29;20473;-75
2023/12/31 04:05:22;;;;;;;4.10;2.40;;;;;;;18.48;58.96;99359.41;4908911;29;20206;-75
2023/12/31 04:07:48;;;;;;;4.23;2.23;;;;;;;18.49;58.83;99349.59;4920587;29;20230;-75
2023/12/31 04:10:13;;;;;;;4.50;2.37;;;;;;;18.50;58.84;99351.22;4904946;29;20211;-75
2023/12/31 04:12:39;;;;;;;3.63;2.30;;;;;;;18.49;58.82;99360.19;4881774;29;20598;-75
2023/12/31 04:15:07;;;;;;;5.77;2.70;;;;;;;18.48;59.06;99350.00;4909147;29;20204;-74
2023/12/31 04:17:36;;;;;;;4.40;2.43;;;;;;;18.50;58.95;99345.50;4917321;29;20212;-74
2023/12/31 04:20:02;;;;;;;3.57;2.20;;;;;;;18.50;59.02;99345.50;4903280;29;20555;-75
2023/12/31 04:22:27;;;;;;;4.80;2.10;;;;;;;18.50;58.87;99333.25;4887025;29;20458;-75
2023/12/31 04:24:53;;;;;;;6.37;2.30;;;;;;;18.48;58.85;99324.28;4897091;29;20539;-76
2023/12/31 04:27:19;;;;;;;3.93;2.37;;;;;;;18.48;59.19;99322.25;4929671;29;20229;-75
2023/12/31 04:29:44;;;;;;;4.13;2.57;;;;;;;18.48;58.96;99319.38;4935954;29;20209;-75
2023/12/31 04:32:10;;;;;;;10.60;3.23;;;;;;;18.47;59.00;99323.44;4901526;29;20955;-75
2023/12/31 04:34:35;;;;;;;4.53;2.40;;;;;;;18.48;58.89;99325.09;4916315;29;20672;-75
2023/12/31 04:37:00;;;;;;;5.00;2.10;;;;;;;18.47;59.07;99320.59;4916030;29;20233;-75
2023/12/31 04:39:26;;;;;;;4.87;2.63;;;;;;;18.48;58.89;99325.09;4924494;29;20200;-75
2023/12/31 04:41:52;;;;;;;3.83;2.07;;;;;;;18.50;58.75;99333.25;4905376;29;20268;-75
2023/12/31 04:44:18;;;;;;;7.40;2.17;;;;;;;18.46;59.07;99338.97;4868863;29;20542;-74
2023/12/31 04:46:43;;;;;;;3.60;2.23;;;;;;;18.50;58.98;99327.53;4901162;29;20464;-73
2023/12/31 04:49:12;;;;;;;4.17;2.47;;;;;;;18.47;59.06;99337.72;4929988;28;20253;-73
2023/12/31 04:51:37;;;;;;;6.50;2.93;;;;;;;18.46;58.54;99324.66;4938934;29;20315;-73
2023/12/31 04:54:03;;;;;;;5.73;2.47;;;;;;;18.46;59.23;99338.97;4922830;29;20470;-73
2023/12/31 04:56:28;;;;;;;5.87;2.60;;;;;;;18.47;59.00;99329.16;4935345;29;20710;-73
2023/12/31 04:58:55;;;;;;;4.57;2.33;;;;;;;18.46;58.66;99318.16;4954589;28;20706;-73
2023/12/31 05:01:22;;;;;;;4.30;2.40;;;;;;;18.49;58.66;99335.31;4937396;29;20274;-73
2023/12/31 05:03:48;;;;;;;6.00;2.70;;;;;;;18.48;58.49;99335.69;4935963;29;20620;-73
2023/12/31 05:06:13;;;;;;;4.13;2.40;;;;;;;18.46;58.77;99333.25;4937593;29;21300;-73
2023/12/31 05:08:43;;;;;;;6.20;2.87;;;;;;;18.46;59.10;99336.09;4936440;29;20450;-73
2023/12/31 05:11:09;;;;;;;3.20;1.90;;;;;;;18.48;58.88;99321.41;4937452;28;20209;-74
2023/12/31 05:13:34;;;;;;;3.83;1.97;;;;;;;18.46;59.12;99336.09;4929305;29;20476;-73
2023/12/31 05:16:00;;;;;;;9.73;2.73;;;;;;;18.48;58.92;99330.81;4902922;29;20443;-73
2023/12/31 05:18:26;;;;;;;3.83;2.33;;;;;;;18.44;59.05;99332.00;4917688;29;20214;-73
2023/12/31 05:20:51;;;;;;;3.60;2.17;;;;;;;18.46;59.26;99338.97;4943784;28;20926;-73
2023/12/31 05:23:17;;;;;;;3.73;2.13;;;;;;;18.46;58.85;99335.31;4940470;28;20292;-73
2023/12/31 05:25:42;;;;;;;5.00;2.67;;;;;;;18.47;58.88;99326.28;4958232;28;20207;-73
2023/12/31 05:28:08;;;;;;;5.40;2.33;;;;;;;18.46;58.92;99338.97;4920985;29;20206;-74
2023/12/31 05:30:33;;;;;;;3.30;1.90;;;;;;;18.47;58.92;99329.16;4917961;29;20191;-73
2023/12/31 05:32:58;;;;;;;6.60;2.40;;;;;;;18.46;58.47;99326.72;4933838;29;20204;-74
2023/12/31 05:35:24;;;;;;;4.23;2.23;;;;;;;18.49;59.12;99323.03;4936946;29;20263;-74
2023/12/31 05:37:49;;;;;;;4.00;2.27;;;;;;;18.46;58.62;99327.53;4927667;29;20214;-73
2023/12/31 05:40:15;;;;;;;3.53;2.17;;;;;;;18.48;58.78;99339.38;4945845;28;20199;-73
2023/12/31 05:42:40;;;;;;;4.63;2.50;;;;;;;18.47;58.61;99340.59;4906174;29;20303;-73
2023/12/31 05:45:06;;;;;;;4.50;2.17;;;;;;;18.48;59.30;99327.97;4903098;29;20548;-73
2023/12/31 05:47:32;;;;;;;3.80;2.10;;;;;;;18.46;58.95;99326.72;4887332;29;20223;-73
2023/12/31 05:49:58;;;;;;;5.47;2.23;;;;;;;18.48;58.75;99315.69;4919834;29;20593;-73
2023/12/31 05:52:23;;;;;;;3.30;2.17;;;;;;;18.45;58.96;99317.31;4921225;29;20746;-73
2023/12/31 05:54:48;;;;;;;4.80;2.40;;;;;;;18.46;58.49;99310.38;4935838;28;20215;-75
2023/12/31 05:57:14;;;;;;;5.17;2.07;;;;;;;18.48;58.74;99316.53;4916084;28;20725;-75
2023/12/31 05:59:39;;;;;;;4.37;2.13;;;;;;;18.45;59.02;99320.19;4934862;29;20255;-76
2023/12/31 06:02:05;;;;;;;4.80;2.90;;;;;;;18.47;58.97;99316.94;4933082;29;20202;-75
2023/12/31 06:04:30;;;;;;;3.30;2.10;;;;;;;18.48;58.99;99310.81;4931766;28;20213;-75
2023/12/31 06:06:55;;;;;;;3.70;2.03;;;;;;;18.45;58.86;99308.75;4927554;29;20219;-75
2023/12/31 06:09:21;;;;;;;4.23;2.33;;;;;;;18.45;58.46;99303.03;4934666;28;20219;-75
2023/12/31 06:11:47;;;;;;;3.33;1.80;;;;;;;18.47;58.61;99303.44;4953163;28;20288;-75
2023/12/31 06:14:12;;;;;;;4.80;2.40;;;;;;;18.45;58.64;99297.31;4937281;28;20225;-75
2023/12/31 06:16:38;;;;;;;3.50;2.00;;;;;;;18.47;58.81;99288.34;4910054;29;20199;-75
2023/12/31 06:19:03;;;;;;;6.60;2.43;;;;;;;18.49;58.50;99298.16;4918655;29;20278;-76
2023/12/31 06:21:29;;;;;;;4.07;2.30;;;;;;;18.46;58.50;99287.50;4916535;29;21061;-75
2023/12/31 06:23:55;;;;;;;3.03;2.10;;;;;;;18.47;58.95;99285.50;4916484;29;20458;-74
2023/12/31 06:26:20;;;;;;;2.90;2.00;;;;;;;18.45;58.75;99277.31;4926677;29;20199;-75
2023/12/31 06:28:45;;;;;;;4.23;2.20;;;;;;;18.45;58.74;99287.91;4921034;28;20691;-75
2023/12/31 06:31:11;;;;;;;3.40;1.93;;;;;;;18.44;58.90;99277.72;4940456;29;20579;-75
2023/12/31 06:33:36;;;;;;;4.07;2.00;;;;;;;18.46;58.65;99270.38;4908814;29;20218;-75
2023/12/31 06:36:02;;;;;;;3.40;2.33;;;;;;;18.47;58.98;99271.19;4926994;29;20211;-75
2023/12/31 06:38:28;;;;;;;3.97;2.20;;;;;;;18.44;58.58;99267.09;4934075;29;20622;-76
2023/12/31 06:40:53;;;;;;;2.67;2.00;;;;;;;18.45;58.57;99265.88;4928680;29;20451;-75
2023/12/31 06:43:19;;;;;;;3.87;1.93;;;;;;;18.44;58.59;99269.97;4899348;29;20196;-76
2023/12/31 06:45:44;;;;;;;3.90;1.90;;;;;;;18.46;58.79;99266.72;4898992;29;20208;-76
2023/12/31 06:48:10;;;;;;;3.80;2.00;;;;;;;18.49;58.38;99265.88;4914429;29;20222;-75
2023/12/31 06:50:35;;;;;;;4.83;2.30;;;;;;;18.49;58.53;99266.72;4908225;29;20230;-75
2023/12/31 06:53:00;;;;;;;3.90;2.13;;;;;;;18.46;58.71;99266.72;4933413;29;20211;-75
2023/12/31 06:55:26;;;;;;;3.07;1.87;;;;;;;18.44;58.99;99255.69;4910005;29;20321;-76
2023/12/31 06:57:51;;;;;;;4.23;2.40;;;;;;;18.44;58.73;99261.41;4917868;29;20203;-75
2023/12/31 07:00:17;;;;;;;4.70;2.27;;;;;;;18.43;59.10;99259.78;4935770;28;20210;-75
2023/12/31 07:02:46;;;;;;;5.60;2.40;;;;;;;18.44;58.69;99249.97;4929017;29;20302;-75
2023/12/31 07:05:12;;;;;;;3.13;2.10;;;;;;;18.45;58.72;99245.88;4916884;29;20214;-74
2023/12/31 07:07:37;;;;;;;3.30;1.83;;;;;;;18.42;58.83;99249.53;4961766;28;20457;-74
2023/12/31 07:10:03;;;;;;;3.60;2.10;;;;;;;18.45;58.59;99240.16;4914989;29;20204;-74
2023/12/31 07:12:29;;;;;;;3.77;1.80;;;;;;;18.45;58.66;99240.16;4920180;29;20213;-74
2023/12/31 07:14:54;;;;;;;3.10;2.07;;;;;;;18.44;58.78;99241.38;4941241;28;20986;-74
2023/12/31 07:17:20;;;;;;;4.80;2.10;;;;;;;18.43;58.78;99242.63;4901475;29;20220;-74
2023/12/31 07:19:45;;;;;;;4.60;1.60;;;;;;;18.44;58.77;99237.69;4905567;29;20199;-74
2023/12/31 07:22:10;;;;;;;3.40;2.10;;;;;;;18.43;58.88;99242.63;4915555;29;20199;-74
2023/12/31 07:24:36;;;;;;;3.70;1.90;;;;;;;18.43;59.01;99225.47;4934918;29;20200;-74
2023/12/31 07:27:02;;;;;;;4.63;2.30;;;;;;;18.43;58.46;99222.63;4936633;29;20214;-74
2023/12/31 07:29:27;;;;;;;4.90;2.30;;;;;;;18.44;58.87;99218.53;4936853;29;20222;-74
2023/12/31 07:31:53;;;;;;;3.77;1.90;;;;;;;18.43;58.48;99208.31;4941040;29;20208;-74
2023/12/31 07:34:18;;;;;;;3.50;2.23;;;;;;;18.45;58.72;99202.19;4901021;29;20212;-73
2023/12/31 07:36:44;;;;;;;4.50;1.80;;;;;;;18.43;58.83;99194.03;4914851;29;20215;-74
2023/12/31 07:39:09;;;;;;;3.47;2.00;;;;;;;18.43;58.69;99201.78;4937204;29;20231;-74
2023/12/31 07:41:35;;;;;;;3.37;1.70;;;;;;;18.43;58.57;99191.19;4936153;29;20199;-74
2023/12/31 07:44:00;;;;;;;4.73;1.90;;;;;;;18.44;58.50;99180.53;4952956;29;20242;-74
2023/12/31 07:46:26;;;;;;;3.60;2.00;;;;;;;18.42;58.89;99186.66;4913872;29;20203;-74
2023/12/31 07:48:52;;;;;;;3.53;2.10;;;;;;;18.45;58.69;99180.16;4918189;29;20242;-74
2023/12/31 07:51:18;;;;;;;3.27;1.90;;;;;;;18.42;58.64;99172.38;4902230;29;20210;-73
2023/12/31 07:53:44;;;;;;;4.90;2.33;;;;;;;18.43;58.87;99171.19;4904237;29;20617;-74
2023/12/31 07:56:09;;;;;;;2.57;1.60;;;;;;;18.43;58.58;99167.50;4911498;29;20490;-74
2023/12/31 07:58:35;;;;;;;3.13;1.90;;;;;;;18.42;58.54;99160.94;4916546;29;20214;-74
2023/12/31 08:01:02;;;;;;;3.97;2.20;;;;;;;18.42;58.69;99169.50;4932248;29;20212;-74
2023/12/31 08:03:30;;;;;;;4.03;1.90;;;;;;;18.40;58.81;99162.56;4915343;29;20215;-74
2023/12/31 08:05:57;;;;;;;4.97;2.00;;;;;;;18.41;58.83;99167.88;4935472;29;20472;-73
2023/12/31 08:08:22;;;;;;;3.40;1.70;;;;;;;18.40;58.84;99171.97;4930917;28;20532;-74
2023/12/31 08:10:48;;;;;;;3.87;2.10;;;;;;;18.39;58.64;99167.50;4937127;29;20474;-74
2023/12/31 08:13:13;;;;;;;3.70;1.80;;;;;;;18.40;58.51;99166.25;4917267;29;20220;-73
2023/12/31 08:15:38;;;;;;;2.87;1.60;;;;;;;18.40;58.57;99160.56;4936176;28;20279;-74
2023/12/31 08:18:05;;;;;;;3.53;1.97;;;;;;;18.38;58.65;99163.00;4936412;29;20219;-71
2023/12/31 08:20:30;;;;;;;3.23;2.07;;;;;;;18.37;58.54;99166.25;4926155;29;20214;-71
2023/12/31 08:22:56;;;;;;;3.37;1.90;;;;;;;18.41;58.49;99169.94;4920369;29;20455;-71
2023/12/31 08:25:21;;;;;;;4.63;2.50;;;;;;;18.41;58.49;99164.22;4898847;29;20199;-70
2023/12/31 08:27:47;;;;;;;2.87;1.97;;;;;;;18.37;58.57;99166.25;4901156;29;20239;-71
2023/12/31 08:30:12;;;;;;;3.77;1.93;;;;;;;18.39;58.36;99161.78;4921213;29;20211;-71
2023/12/31 08:32:38;;;;;;;3.37;1.60;;;;;;;18.38;58.56;99160.16;4932115;29;20218;-71
2023/12/31 08:35:05;;;;;;;3.50;2.13;;;;;;;18.38;58.74;99153.59;4920092;29;20225;-73
2023/12/31 08:37:30;;;;;;;2.77;1.50;;;;;;;18.37;59.31;99151.97;4927676;29;20211;-73
2023/12/31 08:39:56;;;;;;;4.23;2.17;;;;;;;18.34;58.59;99142.19;4901593;29;20503;-73
2023/12/31 08:42:21;;;;;;;2.57;1.73;;;;;;;18.34;58.47;99122.19;4906852;28;20282;-73
2023/12/31 08:44:47;;;;;;;3.43;2.00;;;;;;;18.37;58.83;99117.69;4940403;28;20218;-73
2023/12/31 08:47:12;;;;;;;4.50;2.20;;;;;;;18.35;58.73;99126.66;4944879;28;20218;-72
2023/12/31 08:49:38;;;;;;;3.13;2.03;;;;;;;18.35;58.66;99125.84;4915336;29;20707;-73
2023/12/31 08:52:04;;;;;;;2.77;1.90;;;;;;;18.37;58.48;99135.63;4916696;29;20223;-72
2023/12/31 08:54:29;;;;;;;2.70;1.67;;;;;;;18.35;58.57;99123.81;4917877;29;20203;-74
2023/12/31 08:56:55;;;;;;;2.80;1.90;;;;;;;18.38;58.49;99123.00;4919129;29;21413;-72
2023/12/31 08:59:20;;;;;;;2.77;1.57;;;;;;;18.35;58.24;99120.94;4919112;29;20222;-73
2023/12/31 09:01:46;;;;;;;3.00;1.90;;;;;;;18.40;58.32;99122.56;4923115;29;20216;-73
2023/12/31 09:04:11;;;;;;;2.97;1.73;;;;;;;18.37;58.65;99121.34;4933889;29;20211;-72
2023/12/31 09:06:37;;;;;;;3.70;1.90;;;;;;;18.39;58.01;99124.63;4942652;29;20267;-73
2023/12/31 09:09:04;;;;;;;4.23;1.73;;;;;;;18.32;57.77;99109.50;4915813;29;20274;-72
2023/12/31 09:11:30;;;;;;;3.83;1.90;;;;;;;18.29;57.37;99108.28;4933915;29;20207;-72
2023/12/31 09:13:55;;;;;;;6.57;2.00;;;;;;;18.28;57.67;99108.69;4943934;28;20471;-72
2023/12/31 09:16:21;;;;;;;4.20;2.07;;;;;;;18.29;57.51;99093.16;4899949;29;20544;-72
2023/12/31 09:18:46;;;;;;;4.37;1.80;;;;;;;18.27;57.57;99081.34;4948087;28;20572;-72
2023/12/31 09:21:12;;;;;;;4.60;1.90;;;;;;;18.31;57.32;99085.81;4925224;29;20732;-72
2023/12/31 09:23:37;;;;;;;3.73;1.67;;;;;;;18.28;57.76;99085.81;4897539;29;20210;-70
2023/12/31 09:26:02;;;;;;;4.43;1.83;;;;;;;18.29;57.81;99082.56;4914308;29;20657;-68
2023/12/31 09:28:28;;;;;;;4.23;1.60;;;;;;;18.29;57.64;99076.00;4945047;28;20340;-68
2023/12/31 09:30:53;;;;;;;10.10;2.23;;;;;;;18.26;58.16;99083.38;4900812;29;20207;-68
2023/12/31 09:33:19;;;;;;;4.00;2.10;;;;;;;18.27;57.59;99067.84;4945242;29;20218;-68
2023/12/31 09:35:44;;;;;;;4.87;2.67;;;;;;;18.28;57.72;99075.22;4943745;29;20203;-67
2023/12/31 09:38:10;;;;;;;3.53;1.90;;;;;;;18.29;57.73;99065.41;4899745;29;20207;-69
2023/12/31 09:40:35;;;;;;;4.17;2.27;;;;;;;18.29;57.95;99076.00;4946124;28;20200;-68
2023/12/31 09:43:01;;;;;;;2.90;2.03;;;;;;;18.26;57.65;99074.78;4924027;29;20215;-69
2023/12/31 09:45:28;;;;;;;8.07;2.20;;;;;;;18.26;57.77;99083.38;4900672;29;20203;-69
2023/12/31 09:47:54;;;;;;;3.60;1.80;;;;;;;18.26;57.83;99089.06;4896469;29;20913;-69
2023/12/31 09:50:23;;;;;;;3.40;1.97;;;;;;;18.27;58.15;99075.63;4915471;29;20459;-69
2023/12/31 09:52:49;;;;;;;5.03;1.93;;;;;;;18.30;57.70;99078.47;4913011;29;20220;-69
2023/12/31 09:55:18;;;;;;;2.80;1.67;;;;;;;18.27;57.92;99078.47;4915737;29;20555;-68
2023/12/31 09:57:45;;;;;;;4.13;2.00;;;;;;;18.25;58.26;99080.91;4899657;29;20944;-69
2023/12/31 10:00:11;;;;;;;5.27;2.30;;;;;;;18.27;57.93;99093.56;4911863;29;20505;-69
2023/12/31 10:02:36;;;;;;;5.50;2.37;;;;;;;18.24;57.87;99088.69;4900228;29;21027;-68
2023/12/31 10:05:02;;;;;;;4.70;1.90;;;;;;;18.23;57.90;99087.06;4898297;29;20208;-68
2023/12/31 10:07:27;;;;;;;5.00;2.03;;;;;;;18.23;58.09;99094.81;4900579;29;20227;-69
2023/12/31 10:09:54;;;;;;;3.30;1.83;;;;;;;18.23;58.27;99104.19;4931617;29;20210;-68
2023/12/31 10:12:19;;;;;;;3.93;2.20;;;;;;;18.24;58.40;99102.97;4900328;29;20202;-68
2023/12/31 10:14:45;;;;;;;3.93;1.73;;;;;;;18.23;58.09;99109.09;4892662;29;20498;-71
2023/12/31 10:17:11;;;;;;;4.27;2.20;;;;;;;18.23;57.72;99115.63;4916030;29;20659;-68
2023/12/31 10:19:36;;;;;;;3.70;1.70;;;;;;;18.23;57.95;99123.38;4916376;29;20203;-68
2023/12/31 10:22:05;;;;;;;4.73;2.00;;;;;;;18.23;57.84;99138.47;4897864;29;20470;-69
2023/12/31 10:24:31;;;;;;;8.67;2.30;;;;;;;18.26;57.90;99180.50;4881486;29;20647;-71
2023/12/31 10:26:57;;;;;;;4.10;1.80;;;;;;;18.24;58.06;99230.69;4915563;29;20467;-69
2023/12/31 10:29:22;;;;;;;3.60;1.83;;;;;;;18.25;57.75;99235.19;4884100;29;20216;-68
2023/12/31 10:31:48;;;;;;;4.13;1.97;;;;;;;18.24;57.69;99245.81;4933223;29;20310;-69
2023/12/31 10:34:17;;;;;;;3.37;1.90;;;;;;;18.24;58.07;99240.09;4898414;29;20254;-69
2023/12/31 10:36:46;;;;;;;4.90;1.83;;;;;;;18.21;58.08;99226.59;4918590;29;20240;-69
2023/12/31 10:39:27;;;;;;;4.37;2.10;;;;;;;18.20;57.91;99227.84;4933675;29;20874;-68
2023/12/31 10:41:57;;;;;;;6.30;2.00;;;;;;;18.21;58.04;99218.03;4899760;29;20478;-68
2023/12/31 10:44:22;;;;;;;2.80;1.70;;;;;;;18.20;57.87;99227.00;4914337;29;20454;-70
2023/12/31 10:46:48;;;;;;;4.57;2.40;;;;;;;18.19;57.82;99225.38;4917492;29;20462;-69
2023/12/31 10:49:13;;;;;;;6.13;1.77;;;;;;;18.19;58.38;99225.38;4940642;28;20262;-69
2023/12/31 10:51:39;;;;;;;4.87;2.03;;;;;;;18.20;58.25;99216.41;4937058;29;20210;-69
2023/12/31 10:54:05;;;;;;;3.07;1.77;;;;;;;18.19;57.94;99220.50;4952988;28;20222;-69
2023/12/31 10:56:31;;;;;;;4.40;2.20;;;;;;;18.20;57.96;99236.41;4937116;28;20476;-68
2023/12/31 10:58:58;;;;;;;3.73;1.80;;;;;;;18.20;58.23;99241.28;4936148;29;20490;-70
2023/12/31 11:01:24;;;;;;;3.87;2.10;;;;;;;18.21;57.52;99235.19;4939220;29;20577;-68
2023/12/31 11:03:51;;;;;;;3.53;1.97;;;;;;;18.21;57.82;99248.66;4954834;28;20584;-70
2023/12/31 11:06:17;;;;;;;3.50;1.70;;;;;;;18.18;58.25;99250.28;4954779;28;21278;-69
2023/12/31 11:08:44;;;;;;;4.33;1.97;;;;;;;18.21;57.89;99269.47;4937887;28;20469;-69
2023/12/31 11:11:09;;;;;;;4.10;2.17;;;;;;;18.21;57.81;99262.94;4939053;29;20659;-70
2023/12/31 11:13:36;;;;;;;4.67;1.90;;;;;;;18.20;57.84;99275.56;4954458;29;20466;-70
2023/12/31 11:16:03;;;;;;;3.47;2.00;;;;;;;18.19;58.18;99274.78;4918912;29;20267;-69
2023/12/31 11:18:48;;;;;;;4.47;2.20;;;;;;;18.19;58.29;99291.09;4942355;28;20529;-69
2023/12/31 11:21:23;;;;;;;3.07;1.80;;;;;;;18.23;58.02;99283.34;4975865;28;20444;-69
2023/12/31 11:23:54;;;;;;;4.00;2.30;;;;;;;18.20;58.01;99275.56;4974135;28;20446;-69
2023/12/31 11:26:20;;;;;;;4.87;2.07;;;;;;;18.20;58.12;99275.56;4952538;28;20893;-69
2023/12/31 11:28:48;;;;;;;5.57;2.30;;;;;;;18.20;58.22;99281.28;4938567;29;20469;-68